Time,TemperatureF,DewpointF,PressureIn,WindDirection,WindDirectionDegrees,WindSpeedMPH,WindSpeedGustMPH,Humidity,HourlyPrecipIn,Conditions,Clouds,dailyrainin,SoftwareType,DateUTC
2013-07-24 00:04:00,61.6,55.4,29.82,North,360,8.0,8.0,80,0.00,,,0.00,Wunderground v.1.15,2013-07-24 04:04:00,
2013-07-24 00:09:00,61.3,55.1,29.82,North,349,8.0,10.0,80,0.00,,,0.00,Wunderground v.1.15,2013-07-24 04:09:00,
2013-07-24 00:14:00,61.2,55.0,29.82,North,5,9.0,12.0,80,0.00,,,0.00,Wunderground v.1.15,2013-07-24 04:14:00,
2013-07-24 00:24:00,60.8,54.6,29.83,NNE,15,10.0,11.0,80,0.00,,,0.00,Wunderground v.1.15,2013-07-24 04:24:00,
2013-07-24 00:34:00,60.5,54.3,29.83,North,350,9.0,11.0,80,0.00,,,0.00,Wunderground v.1.15,2013-07-24 04:34:00,
2013-07-24 00:44:00,60.2,53.7,29.84,NNW,344,9.0,10.0,79,0.00,,,0.00,Wunderground v.1.15,2013-07-24 04:44:00,
2013-07-24 00:54:00,59.8,53.6,29.84,North,355,7.0,8.0,80,0.00,,,0.00,Wunderground v.1.15,2013-07-24 04:54:00,
2013-07-24 00:59:00,59.5,53.3,29.85,NNW,339,7.0,8.0,80,0.00,,,0.00,Wunderground v.1.15,2013-07-24 04:59:00,
2013-07-24 01:09:00,59.1,53.3,29.85,North,5,7.0,7.0,81,0.00,,,0.00,Wunderground v.1.15,2013-07-24 05:09:00,
2013-07-24 01:14:00,58.9,53.1,29.85,NNE,13,6.0,7.0,81,0.00,,,0.00,Wunderground v.1.15,2013-07-24 05:14:00,
2013-07-24 01:24:00,58.6,52.8,29.85,North,5,5.0,5.0,81,0.00,,,0.00,Wunderground v.1.15,2013-07-24 05:24:00,
2013-07-24 01:34:00,58.2,52.7,29.85,NNW,347,5.0,6.0,82,0.00,,,0.00,Wunderground v.1.15,2013-07-24 05:34:00,
2013-07-24 01:39:00,58.0,52.5,29.85,North,360,5.0,5.0,82,0.00,,,0.00,Wunderground v.1.15,2013-07-24 05:39:00,
2013-07-24 01:49:00,57.6,52.5,29.85,North,360,4.0,5.0,83,0.00,,,0.00,Wunderground v.1.15,2013-07-24 05:49:00,
2013-07-24 02:04:00,57.1,52.3,29.86,NNW,338,4.0,4.0,84,0.00,,,0.00,Wunderground v.1.15,2013-07-24 06:04:00,
2013-07-24 02:14:00,56.7,51.9,29.85,NNW,346,4.0,4.0,84,0.00,,,0.00,Wunderground v.1.15,2013-07-24 06:14:00,
2013-07-24 02:28:00,56.3,51.8,29.86,NNW,346,3.0,3.0,85,0.00,,,0.00,Wunderground v.1.15,2013-07-24 06:28:00,
2013-07-24 02:33:00,56.2,51.7,29.85,NNW,340,2.0,3.0,85,0.00,,,0.00,Wunderground v.1.15,2013-07-24 06:33:00,
2013-07-24 02:43:00,55.8,51.7,29.85,NNW,338,3.0,3.0,86,0.00,,,0.00,Wunderground v.1.15,2013-07-24 06:43:00,
2013-07-24 02:53:00,55.5,51.4,29.85,NNW,347,2.0,2.0,86,0.00,,,0.00,Wunderground v.1.15,2013-07-24 06:53:00,
2013-07-24 02:58:00,55.3,51.2,29.85,NNW,346,2.0,2.0,86,0.00,,,0.00,Wunderground v.1.15,2013-07-24 06:58:00,
2013-07-24 03:08:00,55.1,51.3,29.85,NNW,345,2.0,2.0,87,0.00,,,0.00,Wunderground v.1.15,2013-07-24 07:08:00,
2013-07-24 03:18:00,54.8,51.0,29.85,NNW,344,2.0,2.0,87,0.00,,,0.00,Wunderground v.1.15,2013-07-24 07:18:00,
2013-07-24 03:28:00,54.4,50.6,29.85,NNW,344,2.0,2.0,87,0.00,,,0.00,Wunderground v.1.15,2013-07-24 07:28:00,
2013-07-24 03:38:00,54.3,50.8,29.86,NNW,344,2.0,2.0,88,0.00,,,0.00,Wunderground v.1.15,2013-07-24 07:38:00,
2013-07-24 03:43:00,54.3,50.8,29.86,NNW,344,2.0,2.0,88,0.00,,,0.00,Wunderground v.1.15,2013-07-24 07:43:00,
2013-07-24 03:48:00,54.3,50.8,29.86,NNW,343,2.0,2.0,88,0.00,,,0.00,Wunderground v.1.15,2013-07-24 07:48:00,
2013-07-24 03:58:00,54.1,50.6,29.86,NNW,343,1.0,1.0,88,0.00,,,0.00,Wunderground v.1.15,2013-07-24 07:58:00,
2013-07-24 04:08:00,53.8,50.3,29.86,NNW,343,0.0,0.0,88,0.00,,,0.00,Wunderground v.1.15,2013-07-24 08:08:00,
2013-07-24 04:13:00,53.6,50.1,29.86,NNW,343,0.0,0.0,88,0.00,,,0.00,Wunderground v.1.15,2013-07-24 08:13:00,
2013-07-24 04:23:00,53.5,50.3,29.86,North,349,1.0,1.0,89,0.00,,,0.00,Wunderground v.1.15,2013-07-24 08:23:00,
2013-07-24 04:33:00,53.2,50.0,29.86,North,349,0.0,0.0,89,0.00,,,0.00,Wunderground v.1.15,2013-07-24 08:33:00,
2013-07-24 04:43:00,53.0,49.8,29.87,North,349,0.0,0.0,89,0.00,,,0.00,Wunderground v.1.15,2013-07-24 08:43:00,
2013-07-24 04:53:00,52.8,49.6,29.87,North,349,0.0,0.0,89,0.00,,,0.00,Wunderground v.1.15,2013-07-24 08:53:00,
2013-07-24 04:58:00,52.8,49.6,29.87,North,349,0.0,0.0,89,0.00,,,0.00,Wunderground v.1.15,2013-07-24 08:58:00,
2013-07-24 05:08:00,52.8,49.9,29.87,North,349,0.0,0.0,90,0.00,,,0.00,Wunderground v.1.15,2013-07-24 09:08:00,
2013-07-24 05:13:00,52.7,49.8,29.87,North,349,0.0,0.0,90,0.00,,,0.00,Wunderground v.1.15,2013-07-24 09:13:00,
2013-07-24 05:18:00,52.6,49.8,29.88,North,349,0.0,0.0,90,0.00,,,0.00,Wunderground v.1.15,2013-07-24 09:18:00,
2013-07-24 05:28:00,52.5,49.7,29.88,North,349,0.0,0.0,90,0.00,,,0.00,Wunderground v.1.15,2013-07-24 09:28:00,
2013-07-24 05:33:00,52.4,49.6,29.88,North,349,0.0,0.0,90,0.00,,,0.00,Wunderground v.1.15,2013-07-24 09:33:00,
2013-07-24 05:43:00,52.1,49.3,29.88,North,349,0.0,2.0,90,0.00,,,0.00,Wunderground v.1.15,2013-07-24 09:43:00,
2013-07-24 05:53:00,51.8,49.0,29.89,North,349,2.0,3.0,90,0.00,,,0.00,Wunderground v.1.15,2013-07-24 09:53:00,
2013-07-24 05:58:00,51.7,48.9,29.89,North,355,3.0,3.0,90,0.00,,,0.00,Wunderground v.1.15,2013-07-24 09:58:00,
2013-07-24 06:08:00,51.8,49.3,29.89,North,360,4.0,4.0,91,0.00,,,0.00,Wunderground v.1.15,2013-07-24 10:08:00,
2013-07-24 06:18:00,51.9,49.1,29.89,North,355,3.0,3.0,90,0.00,,,0.00,Wunderground v.1.15,2013-07-24 10:18:00,
2013-07-24 06:28:00,51.8,49.0,29.90,North,355,3.0,3.0,90,0.00,,,0.00,Wunderground v.1.15,2013-07-24 10:28:00,
2013-07-24 06:38:00,52.0,49.2,29.91,North,355,3.0,4.0,90,0.00,,,0.00,Wunderground v.1.15,2013-07-24 10:38:00,
2013-07-24 06:48:00,52.6,49.8,29.91,NNW,348,3.0,5.0,90,0.00,,,0.00,Wunderground v.1.15,2013-07-24 10:48:00,
2013-07-24 06:58:00,53.3,50.1,29.91,North,351,3.0,3.0,89,0.00,,,0.00,Wunderground v.1.15,2013-07-24 10:58:00,
2013-07-24 07:08:00,53.9,50.1,29.92,North,355,3.0,3.0,87,0.00,,,0.00,Wunderground v.1.15,2013-07-24 11:08:00,
2013-07-24 07:13:00,54.3,50.5,29.92,NNW,346,4.0,4.0,87,0.00,,,0.00,Wunderground v.1.15,2013-07-24 11:13:00,
2013-07-24 07:23:00,55.4,51.0,29.92,North,355,5.0,8.0,85,0.00,,,0.00,Wunderground v.1.15,2013-07-24 11:23:00,
2013-07-24 07:28:00,56.0,51.2,29.92,North,355,6.0,6.0,84,0.00,,,0.00,Wunderground v.1.15,2013-07-24 11:28:00,
2013-07-24 07:33:00,56.6,51.5,29.93,North,350,5.0,6.0,83,0.00,,,0.00,Wunderground v.1.15,2013-07-24 11:33:00,
2013-07-24 07:43:00,57.6,51.8,29.93,NNE,24,6.0,10.0,81,0.00,,,0.00,Wunderground v.1.15,2013-07-24 11:43:00,
2013-07-24 07:53:00,58.2,51.7,29.93,North,9,6.0,7.0,79,0.00,,,0.00,Wunderground v.1.15,2013-07-24 11:53:00,
2013-07-24 07:58:00,58.5,52.0,29.93,NNE,22,6.0,6.0,79,0.00,,,0.00,Wunderground v.1.15,2013-07-24 11:58:00,
2013-07-24 08:08:00,59.1,52.2,29.93,NNE,13,7.0,7.0,78,0.00,,,0.00,Wunderground v.1.15,2013-07-24 12:08:00,
2013-07-24 08:18:00,59.7,52.1,29.94,NNE,15,7.0,9.0,76,0.00,,,0.00,Wunderground v.1.15,2013-07-24 12:18:00,
2013-07-24 08:28:00,60.4,52.4,29.94,North,9,8.0,8.0,75,0.00,,,0.00,Wunderground v.1.15,2013-07-24 12:28:00,
2013-07-24 08:38:00,61.0,51.5,29.95,North,5,8.0,10.0,71,0.00,,,0.00,Wunderground v.1.15,2013-07-24 12:38:00,
2013-07-24 08:48:00,61.4,51.9,29.95,NNE,19,9.0,11.0,71,0.00,,,0.00,Wunderground v.1.15,2013-07-24 12:48:00,
2013-07-24 08:58:00,62.0,51.3,29.96,NNE,15,9.0,14.0,68,0.00,,,0.00,Wunderground v.1.15,2013-07-24 12:58:00,
2013-07-24 09:08:00,62.2,51.5,29.95,NE,46,10.0,10.0,68,0.00,,,0.00,Wunderground v.1.15,2013-07-24 13:08:00,
2013-07-24 09:13:00,62.5,51.8,29.95,NNE,32,9.0,10.0,68,0.00,,,0.00,Wunderground v.1.15,2013-07-24 13:13:00,
2013-07-24 09:23:00,62.8,51.3,29.95,NNE,20,10.0,10.0,66,0.00,,,0.00,Wunderground v.1.15,2013-07-24 13:23:00,
2013-07-24 09:33:00,63.1,52.0,29.95,NNE,25,9.0,10.0,67,0.00,,,0.00,Wunderground v.1.15,2013-07-24 13:33:00,
2013-07-24 09:43:00,63.4,52.7,29.96,NNE,19,9.0,10.0,68,0.00,,,0.00,Wunderground v.1.15,2013-07-24 13:43:00,
2013-07-24 09:53:00,63.5,51.9,29.96,North,5,9.0,14.0,66,0.00,,,0.00,Wunderground v.1.15,2013-07-24 13:53:00,
2013-07-24 09:58:00,63.8,51.8,29.96,NE,40,10.0,10.0,65,0.00,,,0.00,Wunderground v.1.15,2013-07-24 13:58:00,
2013-07-24 10:08:00,64.0,51.6,29.96,NNE,15,10.0,10.0,64,0.00,,,0.00,Wunderground v.1.15,2013-07-24 14:08:00,
2013-07-24 10:18:00,64.4,52.0,29.96,North,5,9.0,9.0,64,0.00,,,0.00,Wunderground v.1.15,2013-07-24 14:18:00,
2013-07-24 10:23:00,64.7,53.5,29.96,North,360,8.0,9.0,67,0.00,,,0.00,Wunderground v.1.15,2013-07-24 14:23:00,
2013-07-24 10:28:00,65.0,53.4,29.96,North,5,8.0,9.0,66,0.00,,,0.00,Wunderground v.1.15,2013-07-24 14:28:00,
2013-07-24 10:38:00,65.2,51.8,29.96,NE,39,7.0,7.0,62,0.00,,,0.00,Wunderground v.1.15,2013-07-24 14:38:00,
2013-07-24 10:48:00,65.4,53.3,29.97,North,355,8.0,8.0,65,0.00,,,0.00,Wunderground v.1.15,2013-07-24 14:48:00,
2013-07-24 10:53:00,65.6,52.2,29.97,NE,44,8.0,9.0,62,0.00,,,0.00,Wunderground v.1.15,2013-07-24 14:53:00,
2013-07-24 10:58:00,65.6,53.1,29.97,NNE,15,8.0,8.0,64,0.00,,,0.00,Wunderground v.1.15,2013-07-24 14:58:00,
2013-07-24 11:08:00,65.6,52.7,29.97,NNE,30,9.0,9.0,63,0.00,,,0.00,Wunderground v.1.15,2013-07-24 15:08:00,
2013-07-24 11:18:00,66.4,52.5,29.98,NNE,17,7.0,8.0,61,0.00,,,0.00,Wunderground v.1.15,2013-07-24 15:18:00,
2013-07-24 11:28:00,66.2,52.8,29.97,NNE,32,7.0,7.0,62,0.00,,,0.00,Wunderground v.1.15,2013-07-24 15:28:00,
2013-07-24 11:38:00,66.7,52.8,29.98,North,5,7.0,7.0,61,0.00,,,0.00,Wunderground v.1.15,2013-07-24 15:38:00,
2013-07-24 11:48:00,67.0,51.7,29.97,NNE,19,6.0,6.0,58,0.00,,,0.00,Wunderground v.1.15,2013-07-24 15:48:00,
2013-07-24 11:58:00,67.0,52.7,29.97,ENE,62,6.0,8.0,60,0.00,,,0.00,Wunderground v.1.15,2013-07-24 15:58:00,
2013-07-24 12:08:00,66.8,51.5,29.98,NNE,27,6.0,6.0,58,0.00,,,0.00,Wunderground v.1.15,2013-07-24 16:08:00,
2013-07-24 12:13:00,66.6,53.2,29.97,NNW,344,6.0,6.0,62,0.00,,,0.00,Wunderground v.1.15,2013-07-24 16:13:00,
2013-07-24 12:23:00,67.7,53.8,29.98,NE,39,7.0,9.0,61,0.00,,,0.00,Wunderground v.1.15,2013-07-24 16:23:00,
2013-07-24 12:33:00,67.2,52.8,29.98,NNE,19,5.0,7.0,60,0.00,,,0.00,Wunderground v.1.15,2013-07-24 16:33:00,
2013-07-24 12:43:00,67.7,53.8,29.98,NNE,24,5.0,5.0,61,0.00,,,0.00,Wunderground v.1.15,2013-07-24 16:43:00,
2013-07-24 12:53:00,68.3,53.9,29.99,NE,46,5.0,5.0,60,0.00,,,0.00,Wunderground v.1.15,2013-07-24 16:53:00,
2013-07-24 12:58:00,68.9,54.9,29.99,NE,44,5.0,6.0,61,0.00,,,0.00,Wunderground v.1.15,2013-07-24 16:58:00,
2013-07-24 13:08:00,68.3,52.9,29.99,East,80,4.0,5.0,58,0.00,,,0.00,Wunderground v.1.15,2013-07-24 17:08:00,
2013-07-24 13:18:00,67.4,53.9,29.99,East,92,4.0,7.0,62,0.00,,,0.00,Wunderground v.1.15,2013-07-24 17:18:00,
2013-07-24 13:28:00,67.3,52.9,29.99,ENE,75,5.0,7.0,60,0.00,,,0.00,Wunderground v.1.15,2013-07-24 17:28:00,
2013-07-24 13:38:00,67.9,54.0,29.99,SE,126,5.0,6.0,61,0.00,,,0.00,Wunderground v.1.15,2013-07-24 17:38:00,
2013-07-24 13:48:00,67.8,54.3,29.99,ENE,66,6.0,9.0,62,0.00,,,0.00,Wunderground v.1.15,2013-07-24 17:48:00,
2013-07-24 13:58:00,68.1,53.7,29.98,East,93,7.0,8.0,60,0.00,,,0.00,Wunderground v.1.15,2013-07-24 17:58:00,
2013-07-24 14:08:00,68.2,54.2,29.98,East,86,7.0,7.0,61,0.00,,,0.00,Wunderground v.1.15,2013-07-24 18:08:00,
2013-07-24 14:13:00,68.4,54.4,29.98,SE,146,5.0,7.0,61,0.00,,,0.00,Wunderground v.1.15,2013-07-24 18:13:00,
2013-07-24 14:23:00,68.7,54.3,29.99,SE,127,5.0,5.0,60,0.00,,,0.00,Wunderground v.1.15,2013-07-24 18:23:00,
2013-07-24 14:33:00,68.6,53.7,29.98,ESE,122,6.0,8.0,59,0.00,,,0.00,Wunderground v.1.15,2013-07-24 18:33:00,
2013-07-24 14:43:00,68.6,53.2,29.98,ESE,107,6.0,8.0,58,0.00,,,0.00,Wunderground v.1.15,2013-07-24 18:43:00,
2013-07-24 14:53:00,68.5,54.5,29.97,ENE,67,7.0,7.0,61,0.00,,,0.00,Wunderground v.1.15,2013-07-24 18:53:00,
2013-07-24 14:58:00,69.1,54.2,29.98,East,99,6.0,7.0,59,0.00,,,0.00,Wunderground v.1.15,2013-07-24 18:58:00,
2013-07-24 15:08:00,69.0,54.5,29.98,ENE,69,7.0,7.0,60,0.00,,,0.00,Wunderground v.1.15,2013-07-24 19:08:00,
2013-07-24 15:18:00,69.3,54.4,29.98,NE,39,7.0,7.0,59,0.00,,,0.00,Wunderground v.1.15,2013-07-24 19:18:00,
2013-07-24 15:28:00,69.4,55.8,29.98,ENE,73,6.0,8.0,62,0.00,,,0.00,Wunderground v.1.15,2013-07-24 19:28:00,
2013-07-24 15:33:00,69.7,55.2,29.98,ENE,73,7.0,8.0,60,0.00,,,0.00,Wunderground v.1.15,2013-07-24 19:33:00,
2013-07-24 15:38:00,69.6,55.6,29.97,NE,43,7.0,8.0,61,0.00,,,0.00,Wunderground v.1.15,2013-07-24 19:38:00,
2013-07-24 15:48:00,69.7,54.7,29.97,ENE,58,6.0,9.0,59,0.00,,,0.00,Wunderground v.1.15,2013-07-24 19:48:00,
2013-07-24 15:58:00,69.7,55.2,29.97,NNE,28,7.0,7.0,60,0.00,,,0.00,Wunderground v.1.15,2013-07-24 19:58:00,
2013-07-24 16:08:00,69.8,55.3,29.97,ENE,64,7.0,8.0,60,0.00,,,0.00,Wunderground v.1.15,2013-07-24 20:08:00,
2013-07-24 16:18:00,69.7,54.7,29.97,ENE,76,8.0,10.0,59,0.00,,,0.00,Wunderground v.1.15,2013-07-24 20:18:00,
2013-07-24 16:28:00,69.8,55.7,29.97,NE,35,8.0,8.0,61,0.00,,,0.00,Wunderground v.1.15,2013-07-24 20:28:00,
2013-07-24 16:38:00,70.3,56.2,29.97,ENE,74,6.0,7.0,61,0.00,,,0.00,Wunderground v.1.15,2013-07-24 20:38:00,
2013-07-24 16:48:00,69.8,55.3,29.97,ENE,74,7.0,8.0,60,0.00,,,0.00,Wunderground v.1.15,2013-07-24 20:48:00,
2013-07-24 16:58:00,69.8,56.2,29.97,ESE,123,6.0,8.0,62,0.00,,,0.00,Wunderground v.1.15,2013-07-24 20:58:00,
2013-07-24 17:08:00,70.0,55.9,29.97,NE,56,7.0,7.0,61,0.00,,,0.00,Wunderground v.1.15,2013-07-24 21:08:00,
2013-07-24 17:13:00,69.9,56.7,29.97,ENE,76,7.0,7.0,63,0.00,,,0.00,Wunderground v.1.15,2013-07-24 21:13:00,
2013-07-24 17:23:00,69.9,56.7,29.97,ENE,71,7.0,7.0,63,0.00,,,0.00,Wunderground v.1.15,2013-07-24 21:23:00,
2013-07-24 17:33:00,69.7,56.5,29.97,East,87,6.0,8.0,63,0.00,,,0.00,Wunderground v.1.15,2013-07-24 21:33:00,
2013-07-24 17:43:00,69.9,55.8,29.97,ENE,78,6.0,7.0,61,0.00,,,0.00,Wunderground v.1.15,2013-07-24 21:43:00,
2013-07-24 17:53:00,69.9,57.2,29.97,East,81,7.0,7.0,64,0.00,,,0.00,Wunderground v.1.15,2013-07-24 21:53:00,
2013-07-24 17:58:00,70.0,56.8,29.97,East,101,6.0,8.0,63,0.00,,,0.00,Wunderground v.1.15,2013-07-24 21:58:00,
2013-07-24 18:08:00,69.7,56.5,29.97,East,94,7.0,9.0,63,0.00,,,0.00,Wunderground v.1.15,2013-07-24 22:08:00,
2013-07-24 18:18:00,69.7,56.1,29.97,East,92,6.0,6.0,62,0.00,,,0.00,Wunderground v.1.15,2013-07-24 22:18:00,
2013-07-24 18:23:00,69.8,56.2,29.97,East,80,5.0,9.0,62,0.00,,,0.00,Wunderground v.1.15,2013-07-24 22:23:00,
2013-07-24 18:33:00,69.6,56.0,29.97,ESE,109,6.0,8.0,62,0.00,,,0.00,Wunderground v.1.15,2013-07-24 22:33:00,
2013-07-24 18:38:00,69.6,56.0,29.97,East,101,5.0,5.0,62,0.00,,,0.00,Wunderground v.1.15,2013-07-24 22:38:00,
2013-07-24 18:48:00,69.5,55.9,29.97,SE,124,4.0,4.0,62,0.00,,,0.00,Wunderground v.1.15,2013-07-24 22:48:00,
2013-07-24 18:53:00,69.3,56.2,29.97,ENE,74,5.0,8.0,63,0.00,,,0.00,Wunderground v.1.15,2013-07-24 22:53:00,
2013-07-24 18:58:00,69.0,56.3,29.97,East,97,5.0,5.0,64,0.00,,,0.00,Wunderground v.1.15,2013-07-24 22:58:00,
2013-07-24 19:08:00,68.5,56.3,29.97,East,82,5.0,5.0,65,0.00,,,0.00,Wunderground v.1.15,2013-07-24 23:08:00,
2013-07-24 19:18:00,68.8,56.6,29.97,ENE,74,3.0,4.0,65,0.00,,,0.00,Wunderground v.1.15,2013-07-24 23:18:00,
2013-07-24 19:28:00,68.8,56.1,29.98,East,88,6.0,7.0,64,0.00,,,0.00,Wunderground v.1.15,2013-07-24 23:28:00,
2013-07-24 19:38:00,68.5,55.8,29.98,East,98,5.0,6.0,64,0.00,,,0.00,Wunderground v.1.15,2013-07-24 23:38:00,
2013-07-24 19:48:00,68.5,55.8,29.98,ENE,74,4.0,7.0,64,0.00,,,0.00,Wunderground v.1.15,2013-07-24 23:48:00,
2013-07-24 19:58:00,68.2,56.0,29.99,ENE,73,3.0,3.0,65,0.00,,,0.00,Wunderground v.1.15,2013-07-24 23:58:00,
2013-07-24 20:08:00,67.6,55.8,29.99,East,86,3.0,3.0,66,0.00,,,0.00,Wunderground v.1.15,2013-07-25 00:08:00,
2013-07-24 20:13:00,67.5,56.2,29.99,East,80,3.0,5.0,67,0.00,,,0.00,Wunderground v.1.15,2013-07-25 00:13:00,
2013-07-24 20:23:00,66.9,56.0,29.99,ENE,65,3.0,3.0,68,0.00,,,0.00,Wunderground v.1.15,2013-07-25 00:23:00,
2013-07-24 20:33:00,66.2,55.3,29.99,ENE,78,3.0,3.0,68,0.00,,,0.00,Wunderground v.1.15,2013-07-25 00:33:00,
2013-07-24 20:43:00,65.7,55.6,29.99,ENE,77,2.0,3.0,70,0.00,,,0.00,Wunderground v.1.15,2013-07-25 00:43:00,
2013-07-24 20:53:00,65.0,55.4,29.99,ENE,76,2.0,2.0,71,0.00,,,0.00,Wunderground v.1.15,2013-07-25 00:53:00,
2013-07-24 20:58:00,64.9,55.3,29.99,East,80,2.0,3.0,71,0.00,,,0.00,Wunderground v.1.15,2013-07-25 00:58:00,
2013-07-24 21:08:00,64.4,55.6,29.99,ENE,74,1.0,1.0,73,0.00,,,0.00,Wunderground v.1.15,2013-07-25 01:08:00,
2013-07-24 21:18:00,63.8,55.4,29.99,ENE,74,1.0,2.0,74,0.00,,,0.00,Wunderground v.1.15,2013-07-25 01:18:00,
2013-07-24 21:28:00,63.3,55.2,30.00,ENE,74,2.0,2.0,75,0.00,,,0.00,Wunderground v.1.15,2013-07-25 01:28:00,
2013-07-24 21:33:00,63.2,55.5,29.99,ENE,74,2.0,2.0,76,0.00,,,0.00,Wunderground v.1.15,2013-07-25 01:33:00,
2013-07-24 21:38:00,62.9,55.6,30.00,ENE,74,1.0,2.0,77,0.00,,,0.00,Wunderground v.1.15,2013-07-25 01:38:00,
2013-07-24 21:48:00,62.4,55.1,30.00,ENE,68,2.0,3.0,77,0.00,,,0.00,Wunderground v.1.15,2013-07-25 01:48:00,
2013-07-24 21:53:00,62.3,55.4,30.00,NE,49,2.0,3.0,78,0.00,,,0.00,Wunderground v.1.15,2013-07-25 01:53:00,
2013-07-24 21:58:00,62.0,55.1,30.00,NE,49,2.0,3.0,78,0.00,,,0.00,Wunderground v.1.15,2013-07-25 01:58:00,
2013-07-24 22:08:00,61.1,54.9,30.00,ENE,63,2.0,2.0,80,0.00,,,0.00,Wunderground v.1.15,2013-07-25 02:08:00,
2013-07-24 22:18:00,60.0,54.2,30.00,ENE,61,2.0,2.0,81,0.00,,,0.00,Wunderground v.1.15,2013-07-25 02:18:00,
2013-07-24 22:23:00,59.3,53.8,30.00,ENE,61,2.0,2.0,82,0.00,,,0.00,Wunderground v.1.15,2013-07-25 02:23:00,
2013-07-24 22:28:00,58.8,53.6,30.00,ENE,61,1.0,1.0,83,0.00,,,0.00,Wunderground v.1.15,2013-07-25 02:28:00,
2013-07-24 22:38:00,58.2,53.4,30.00,ENE,61,0.0,1.0,84,0.00,,,0.00,Wunderground v.1.15,2013-07-25 02:38:00,
2013-07-24 22:43:00,57.8,53.3,30.00,ENE,61,1.0,2.0,85,0.00,,,0.00,Wunderground v.1.15,2013-07-25 02:43:00,
2013-07-24 22:53:00,57.5,53.3,30.01,ENE,61,2.0,2.0,86,0.00,,,0.00,Wunderground v.1.15,2013-07-25 02:53:00,
2013-07-24 22:58:00,57.4,53.2,30.01,NNE,32,2.0,3.0,86,0.00,,,0.00,Wunderground v.1.15,2013-07-25 02:58:00,
2013-07-24 23:08:00,57.4,53.2,30.01,NNE,29,3.0,3.0,86,0.00,,,0.00,Wunderground v.1.15,2013-07-25 03:08:00,
2013-07-24 23:18:00,57.4,53.2,30.01,NNE,28,3.0,3.0,86,0.00,,,0.00,Wunderground v.1.15,2013-07-25 03:18:00,
2013-07-24 23:28:00,57.1,53.0,30.01,NNE,26,3.0,3.0,86,0.00,,,0.00,Wunderground v.1.15,2013-07-25 03:28:00,
2013-07-24 23:38:00,57.0,52.9,30.01,NNE,28,3.0,3.0,86,0.00,,,0.00,Wunderground v.1.15,2013-07-25 03:38:00,
2013-07-24 23:48:00,56.8,52.7,30.01,NNE,17,3.0,3.0,86,0.00,,,0.00,Wunderground v.1.15,2013-07-25 03:48:00,
2013-07-24 23:53:00,56.7,52.6,30.01,NNE,17,2.0,3.0,86,0.00,,,0.00,Wunderground v.1.15,2013-07-25 03:53:00,
2013-07-24 23:58:00,56.5,52.4,30.02,NNE,17,1.0,1.0,86,0.00,,,0.00,Wunderground v.1.15,2013-07-25 03:58:00,